Kitchener, Canada
Current Conditions -  °F | °C
As of 2:00 AM on Sunday 26 Oct 2014 (Local Time) from CYKF Reporting Station
Clear Clear  
Wind Chill: 40°   Ceiling: Unl
Heat Index: 46°   Visibility: 9mi
Dew Point: 36°   Wind: 16mph
Humidity: 66%   Direction: 280°W
Pressure: 29.66"   Gusts: 25mph
Location:  43.45°N, 80.49°W
Report Text: CYKF 260600Z AUTO 28014G22KT 9SM CLR 08/02 A2966 RMK SLP046
Loading
Personal Weather Stations






























Interactive Weather Map New forecast layout! Learn more

10-Day Weather Forecast

Advertisements
Track Severe Weather on mobile